KAXN/AXN METAR and TAF weather

Enter ICAO airport designator
Station Type Date Time Source
KAXN METAR 2024/06/16 00:05 UTC NOAA

KAXN 160005Z AUTO 13010G19KT 10SM OVC004 18/17 A2977 RMK AO2 T01780172


Station Type Date Time Source
KAXN Decoded METAR 2024/06/16 00:05 UTC NOAA

CHANDLER FIELD, MN, United States (KAXN) 45-52N 095-24W 433M
Jun 15, 2024 - 08:05 PM EDT / 2024.06.16 0005 UTC
Wind: from the SE (130 degrees) at 12 MPH (10 KT) gusting to 22 MPH (19 KT):0
Visibility: 10 mile(s):0
Sky conditions: overcast
Temperature: 64.0 F (17.8 C)
Dew Point: 63.0 F (17.2 C)
Relative Humidity: 96%
Pressure (altimeter): 29.77 in. Hg (1008 hPa)
ob: KAXN 160005Z AUTO 13010G19KT 10SM OVC004 18/17 A2977 RMK AO2 T01780172
cycle: 0

Station Type Date Time Source
KAXN TAF 2024/06/16 00:10 UTC NOAA